createdAt,value
2017-05-05T00:01:16.911Z,0
2017-05-05T00:02:38.702Z,0
2017-05-05T00:04:00.553Z,0
2017-05-05T00:05:22.408Z,0
2017-05-05T00:06:44.215Z,0
2017-05-05T00:08:06.034Z,0
2017-05-05T00:09:27.876Z,0
2017-05-05T00:10:49.677Z,0
2017-05-05T00:12:11.795Z,0
2017-05-05T00:13:33.633Z,0
2017-05-05T00:14:56.539Z,0
2017-05-05T00:16:18.345Z,0
2017-05-05T00:17:40.542Z,0
2017-05-05T00:19:03.206Z,0
2017-05-05T00:20:24.947Z,0
2017-05-05T00:21:46.840Z,0
2017-05-05T00:23:08.567Z,0
2017-05-05T00:24:30.379Z,0
2017-05-05T00:25:52.147Z,0
2017-05-05T00:27:14.115Z,0
2017-05-05T00:28:36.257Z,0
2017-05-05T00:29:57.939Z,0
2017-05-05T00:31:19.787Z,0
2017-05-05T00:32:42.550Z,0
2017-05-05T00:34:04.366Z,0
2017-05-05T00:35:26.109Z,0
2017-05-05T00:36:48.993Z,0
2017-05-05T00:38:11.300Z,0
2017-05-05T00:39:33.024Z,0
2017-05-05T00:40:54.818Z,0
2017-05-05T00:42:16.579Z,0
2017-05-05T00:43:38.449Z,0
2017-05-05T00:45:01.269Z,0
2017-05-05T00:46:23.102Z,0
2017-05-05T00:47:44.866Z,0
2017-05-05T00:49:06.757Z,0
2017-05-05T00:50:28.759Z,0
2017-05-05T00:51:51.082Z,0
2017-05-05T00:53:12.972Z,0
2017-05-05T00:54:34.816Z,0
2017-05-05T00:55:56.573Z,0
2017-05-05T00:57:18.484Z,0
2017-05-05T00:58:40.377Z,0
2017-05-05T01:00:02.131Z,0
2017-05-05T01:01:23.929Z,0
2017-05-05T01:02:45.733Z,0
2017-05-05T01:04:08.529Z,0
2017-05-05T01:05:30.269Z,0
2017-05-05T01:06:52.047Z,0
2017-05-05T01:08:13.794Z,0
2017-05-05T01:09:35.680Z,0
2017-05-05T01:10:57.674Z,0
2017-05-05T01:12:20.522Z,0
2017-05-05T01:13:44.335Z,0
2017-05-05T01:15:06.128Z,0
2017-05-05T01:16:28.056Z,0
2017-05-05T01:17:49.890Z,0
2017-05-05T01:19:11.734Z,0
2017-05-05T01:20:34.495Z,0
2017-05-05T01:21:56.393Z,0
2017-05-05T01:23:18.229Z,0
2017-05-05T01:24:40.459Z,0
2017-05-05T01:26:02.389Z,0
2017-05-05T01:27:26.222Z,0
2017-05-05T01:28:48.118Z,0
2017-05-05T01:30:09.944Z,0
2017-05-05T01:31:31.749Z,0
2017-05-05T01:32:54.574Z,0
2017-05-05T01:34:21.352Z,0
2017-05-05T01:35:43.108Z,0
2017-05-05T01:37:05.935Z,0
2017-05-05T01:38:27.762Z,0
2017-05-05T01:39:49.493Z,0
2017-05-05T01:41:11.324Z,0
2017-05-05T01:42:33.056Z,0
2017-05-05T01:43:54.881Z,0
2017-05-05T01:45:16.641Z,0
2017-05-05T01:46:38.414Z,0
2017-05-05T01:48:00.182Z,0
2017-05-05T01:49:21.979Z,0
2017-05-05T01:50:43.845Z,0
2017-05-05T01:52:06.604Z,0
2017-05-05T01:53:29.389Z,0
2017-05-05T01:54:52.222Z,0
2017-05-05T01:56:14.120Z,0
2017-05-05T01:57:35.854Z,0
2017-05-05T01:58:58.578Z,0
2017-05-05T02:00:20.830Z,0
2017-05-05T02:01:43.093Z,0
2017-05-05T02:03:04.916Z,0
2017-05-05T02:04:26.688Z,0
2017-05-05T02:05:49.512Z,0
2017-05-05T02:07:13.289Z,0
2017-05-05T02:08:35.049Z,0
2017-05-05T02:09:56.839Z,0
2017-05-05T02:11:18.688Z,0
2017-05-05T02:12:42.513Z,0
2017-05-05T02:14:04.240Z,0
2017-05-05T02:15:26.010Z,0
2017-05-05T02:16:48.854Z,0
2017-05-05T02:18:10.697Z,0
2017-05-05T02:19:32.550Z,0
2017-05-05T02:20:54.359Z,0
2017-05-05T02:22:16.095Z,0
2017-05-05T02:23:37.867Z,0
2017-05-05T02:24:59.694Z,0
2017-05-05T02:26:31.298Z,0
2017-05-05T02:27:53.229Z,0
2017-05-05T02:29:14.990Z,0
2017-05-05T02:30:36.793Z,0
2017-05-05T02:31:59.640Z,0
2017-05-05T02:33:22.834Z,0
2017-05-05T02:34:45.123Z,0
2017-05-05T02:36:07.095Z,0
2017-05-05T02:37:28.889Z,0
2017-05-05T02:38:51.794Z,0
2017-05-05T02:40:13.539Z,0
2017-05-05T02:41:36.349Z,0
2017-05-05T02:42:58.070Z,0
2017-05-05T02:44:19.919Z,0
2017-05-05T02:45:41.699Z,0
2017-05-05T02:47:03.477Z,0
2017-05-05T02:48:25.352Z,0
2017-05-05T02:49:47.114Z,0
2017-05-05T02:51:09.927Z,0
2017-05-05T02:52:31.749Z,0
2017-05-05T02:53:53.567Z,0
2017-05-05T02:55:15.373Z,0
2017-05-05T02:56:37.154Z,0
2017-05-05T02:57:58.879Z,0
2017-05-05T02:59:20.688Z,0
2017-05-05T03:00:43.645Z,0
2017-05-05T03:02:06.347Z,0
2017-05-05T03:03:29.155Z,0
2017-05-05T03:04:50.951Z,0
2017-05-05T03:07:22.429Z,0
2017-05-05T03:08:45.703Z,0
2017-05-05T03:10:07.524Z,0
2017-05-05T03:11:29.499Z,0
2017-05-05T03:12:51.321Z,0
2017-05-05T03:14:13.086Z,0
2017-05-05T03:15:34.859Z,0
2017-05-05T03:16:56.710Z,0
2017-05-05T03:18:18.626Z,0
2017-05-05T03:19:40.394Z,0
2017-05-05T03:21:03.241Z,0
2017-05-05T03:22:25.126Z,0
2017-05-05T03:23:46.993Z,0
2017-05-05T03:25:09.845Z,0
2017-05-05T03:26:31.759Z,4
2017-05-05T03:27:53.616Z,4
2017-05-05T03:29:15.445Z,0
2017-05-05T03:30:37.236Z,0
2017-05-05T03:31:59.092Z,4
2017-05-05T03:33:20.948Z,4
2017-05-05T03:34:43.704Z,0
2017-05-05T03:36:06.517Z,4
2017-05-05T03:37:28.247Z,4
2017-05-05T03:38:50.152Z,8
2017-05-05T03:40:11.906Z,8
2017-05-05T03:41:34.671Z,12
2017-05-05T03:42:56.664Z,12
2017-05-05T03:44:18.514Z,16
2017-05-05T03:45:40.242Z,20
2017-05-05T03:47:02.117Z,24
2017-05-05T03:48:23.901Z,24
2017-05-05T03:49:46.687Z,24
2017-05-05T03:51:08.449Z,24
2017-05-05T03:52:30.214Z,28
2017-05-05T03:53:51.983Z,36
2017-05-05T03:55:14.733Z,40
2017-05-05T03:56:36.531Z,44
2017-05-05T03:57:58.297Z,48
2017-05-05T03:59:20.151Z,56
2017-05-05T04:00:41.958Z,64
2017-05-05T04:02:03.659Z,68
2017-05-05T04:03:25.435Z,72
2017-05-05T04:04:47.212Z,88
2017-05-05T04:06:08.998Z,112
2017-05-05T04:07:30.799Z,144
2017-05-05T04:08:54.527Z,168
2017-05-05T04:10:17.331Z,188
2017-05-05T04:11:39.185Z,208
2017-05-05T04:13:01.044Z,220
2017-05-05T04:14:22.889Z,228
2017-05-05T04:15:44.731Z,240
2017-05-05T04:17:06.544Z,264
2017-05-05T04:18:28.663Z,252
2017-05-05T04:19:50.773Z,268
2017-05-05T04:21:12.694Z,284
2017-05-05T04:22:35.551Z,284
2017-05-05T04:23:57.369Z,288
2017-05-05T04:25:19.088Z,288
2017-05-05T04:26:41.926Z,304
2017-05-05T04:28:03.708Z,304
2017-05-05T04:29:25.491Z,316
2017-05-05T04:30:47.307Z,332
2017-05-05T04:32:09.180Z,388
2017-05-05T04:33:32.143Z,472
2017-05-05T04:34:54.018Z,532
2017-05-05T04:36:17.946Z,540
2017-05-05T04:37:40.900Z,568
2017-05-05T04:39:02.737Z,600
2017-05-05T04:40:24.584Z,640
2017-05-05T04:41:47.413Z,728
2017-05-05T04:43:09.284Z,776
2017-05-05T04:44:31.135Z,776
2017-05-05T04:45:53.969Z,800
2017-05-05T04:47:16.841Z,812
2017-05-05T04:48:38.788Z,788
2017-05-05T04:50:00.621Z,792
2017-05-05T04:51:22.389Z,796
2017-05-05T04:52:45.655Z,748
2017-05-05T04:54:08.008Z,620
2017-05-05T04:55:30.990Z,556
2017-05-05T04:56:52.722Z,528
2017-05-05T04:58:14.494Z,556
2017-05-05T04:59:36.238Z,556
2017-05-05T05:00:58.243Z,660
2017-05-05T05:02:19.989Z,712
2017-05-05T05:03:41.865Z,692
2017-05-05T05:05:03.732Z,660
2017-05-05T05:06:25.666Z,740
2017-05-05T05:07:50.518Z,712
2017-05-05T05:09:14.371Z,712
2017-05-05T05:10:36.173Z,780
2017-05-05T05:11:57.962Z,948
2017-05-05T05:13:19.834Z,1104
2017-05-05T05:14:41.627Z,1276
2017-05-05T05:16:04.481Z,1592
2017-05-05T05:17:26.464Z,1776
2017-05-05T05:18:48.386Z,1824
2017-05-05T05:20:10.185Z,2080
2017-05-05T05:21:32.074Z,1936
2017-05-05T05:22:53.959Z,2308
2017-05-05T05:24:15.817Z,2936
2017-05-05T05:25:37.543Z,2992
2017-05-05T05:26:59.538Z,3624
2017-05-05T05:28:21.839Z,4364
2017-05-05T05:29:43.850Z,4800
2017-05-05T05:31:15.434Z,4820
2017-05-05T05:32:37.370Z,4580
2017-05-05T05:33:59.153Z,4480
2017-05-05T05:35:20.939Z,4404
2017-05-05T05:36:43.693Z,4128
2017-05-05T05:38:05.949Z,4036
2017-05-05T05:39:27.874Z,4100
2017-05-05T05:40:49.683Z,4592
2017-05-05T05:42:11.466Z,4496
2017-05-05T05:43:33.304Z,4072
2017-05-05T05:44:55.154Z,3980
2017-05-05T05:46:16.893Z,3984
2017-05-05T05:47:38.727Z,4564
2017-05-05T05:49:00.678Z,4820
2017-05-05T05:50:22.607Z,5292
2017-05-05T05:51:44.503Z,5636
2017-05-05T05:53:07.301Z,5672
2017-05-05T05:54:29.084Z,5776
2017-05-05T05:55:50.926Z,5868
2017-05-05T05:57:12.847Z,5736
2017-05-05T05:58:34.600Z,5824
2017-05-05T05:59:56.364Z,5948
2017-05-05T06:01:18.165Z,5752
2017-05-05T06:02:40.281Z,5724
2017-05-05T06:04:02.685Z,5328
2017-05-05T06:05:24.683Z,5188
2017-05-05T06:06:47.373Z,5496
2017-05-05T06:08:09.249Z,5768
2017-05-05T06:09:31.006Z,6508
2017-05-05T06:10:52.827Z,7288
2017-05-05T06:12:14.794Z,6700
2017-05-05T06:13:36.630Z,6748
2017-05-05T06:14:58.504Z,7160
2017-05-05T06:16:20.320Z,6496
2017-05-05T06:17:42.192Z,5892
2017-05-05T06:19:04.064Z,6156
2017-05-05T06:20:25.817Z,6880
2017-05-05T06:21:47.559Z,6884
2017-05-05T06:23:09.343Z,6812
2017-05-05T06:24:31.218Z,7516
2017-05-05T06:25:53.020Z,7532
2017-05-05T06:27:14.886Z,6908
2017-05-05T06:28:36.708Z,7992
2017-05-05T06:29:58.465Z,7724
2017-05-05T06:31:21.281Z,8228
2017-05-05T06:32:43.122Z,8384
2017-05-05T06:34:05.019Z,8284
2017-05-05T06:35:26.816Z,7416
2017-05-05T06:36:48.857Z,8896
2017-05-05T06:38:11.179Z,9124
2017-05-05T06:39:34.109Z,8396
2017-05-05T06:40:55.990Z,7700
2017-05-05T06:42:18.756Z,7284
2017-05-05T06:43:40.640Z,5756
2017-05-05T06:45:02.453Z,4572
2017-05-05T06:46:24.210Z,4668
2017-05-05T06:47:45.996Z,5052
2017-05-05T06:49:07.734Z,5592
2017-05-05T06:50:29.526Z,5928
2017-05-05T06:51:51.289Z,6652
2017-05-05T06:53:13.078Z,4956
2017-05-05T06:54:34.798Z,3784
2017-05-05T06:55:56.571Z,3644
2017-05-05T06:57:19.375Z,4116
2017-05-05T06:58:41.192Z,5184
2017-05-05T07:00:02.977Z,6564
2017-05-05T07:01:24.819Z,7364
2017-05-05T07:02:46.666Z,7888
2017-05-05T07:04:08.393Z,8072
2017-05-05T07:05:30.251Z,8364
2017-05-05T07:06:52.017Z,8924
2017-05-05T07:08:13.829Z,10016
2017-05-05T07:09:38.219Z,9888
2017-05-05T07:11:00.065Z,8876
2017-05-05T07:12:22.099Z,8356
2017-05-05T07:13:44.310Z,7876
2017-05-05T07:15:33.312Z,7840
2017-05-05T07:17:24.860Z,8548
2017-05-05T07:19:02.527Z,8588
2017-05-05T07:20:30.020Z,7408
2017-05-05T07:21:53.656Z,6520
2017-05-05T07:23:26.896Z,6816
2017-05-05T07:24:49.835Z,7460
2017-05-05T07:26:34.906Z,7568
2017-05-05T07:28:27.000Z,8616
2017-05-05T07:30:19.321Z,9572
2017-05-05T07:32:10.320Z,9444
2017-05-05T07:34:04.515Z,9716
2017-05-05T07:35:58.719Z,11832
2017-05-05T07:37:49.039Z,13576
2017-05-05T07:39:41.022Z,15264
2017-05-05T07:41:33.333Z,17568
2017-05-05T07:43:24.727Z,19552
2017-05-05T07:45:17.325Z,19392
2017-05-05T07:47:08.911Z,18144
2017-05-05T07:48:59.051Z,20864
2017-05-05T07:50:49.287Z,24352
2017-05-05T07:52:39.570Z,22432
2017-05-05T07:54:28.880Z,17504
2017-05-05T07:55:50.938Z,14496
2017-05-05T07:57:12.797Z,11388
2017-05-05T07:58:34.607Z,7808
2017-05-05T07:59:56.348Z,4928
2017-05-05T08:01:18.116Z,3596
2017-05-05T08:02:39.812Z,3884
2017-05-05T08:04:01.725Z,4780
2017-05-05T08:05:23.566Z,6412
2017-05-05T08:06:45.340Z,7384
2017-05-05T08:08:07.124Z,7628
2017-05-05T08:09:28.916Z,7920
2017-05-05T08:10:50.779Z,8736
2017-05-05T08:12:12.647Z,9792
2017-05-05T08:13:34.489Z,10844
2017-05-05T08:14:56.287Z,12012
2017-05-05T08:16:18.127Z,12624
2017-05-05T08:17:39.928Z,12552
2017-05-05T08:19:01.802Z,12804
2017-05-05T08:20:27.477Z,13904
2017-05-05T08:21:50.765Z,14496
2017-05-05T08:23:12.680Z,14624
2017-05-05T08:24:34.874Z,14752
2017-05-05T08:25:56.911Z,14236
2017-05-05T08:27:18.659Z,13904
2017-05-05T08:28:40.487Z,13784
2017-05-05T08:30:02.435Z,13972
2017-05-05T08:31:24.380Z,14224
2017-05-05T08:32:46.089Z,13596
2017-05-05T08:34:07.969Z,13604
2017-05-05T08:35:29.761Z,13508
2017-05-05T08:36:51.753Z,12320
2017-05-05T08:38:13.591Z,10488
2017-05-05T08:39:35.408Z,8984
2017-05-05T08:40:58.308Z,8212
2017-05-05T08:42:20.846Z,8696
2017-05-05T08:43:42.670Z,9256
2017-05-05T08:45:04.472Z,9912
2017-05-05T08:46:26.329Z,10480
2017-05-05T08:47:48.176Z,11080
2017-05-05T08:49:10.030Z,11972
2017-05-05T08:50:31.939Z,12612
2017-05-05T08:51:53.745Z,13360
2017-05-05T08:53:15.677Z,14200
2017-05-05T08:54:37.465Z,14976
2017-05-05T08:55:59.332Z,14624
2017-05-05T08:57:21.095Z,13492
2017-05-05T08:58:43.086Z,12324
2017-05-05T09:00:05.032Z,11628
2017-05-05T09:01:27.431Z,11212
2017-05-05T09:02:50.612Z,10968
2017-05-05T09:04:13.546Z,10968
2017-05-05T09:05:35.337Z,11460
2017-05-05T09:06:57.329Z,12088
2017-05-05T09:08:19.527Z,13152
2017-05-05T09:09:41.361Z,14784
2017-05-05T09:11:03.206Z,15872
2017-05-05T09:12:25.114Z,17152
2017-05-05T09:13:46.995Z,18720
2017-05-05T09:15:08.866Z,18400
2017-05-05T09:16:30.705Z,17312
2017-05-05T09:17:52.552Z,15776
2017-05-05T09:19:14.509Z,14976
2017-05-05T09:20:36.238Z,13276
2017-05-05T09:21:58.107Z,11732
2017-05-05T09:23:20.036Z,10356
2017-05-05T09:24:41.909Z,9376
2017-05-05T09:26:03.765Z,8588
2017-05-05T09:27:25.568Z,8144
2017-05-05T09:28:47.438Z,8092
2017-05-05T09:30:09.247Z,8272
2017-05-05T09:31:31.043Z,8540
2017-05-05T09:32:52.789Z,8848
2017-05-05T09:34:14.913Z,9108
2017-05-05T09:35:36.753Z,9296
2017-05-05T09:36:58.768Z,10228
2017-05-05T09:38:20.581Z,12104
2017-05-05T09:39:42.539Z,15424
2017-05-05T09:41:04.385Z,18240
2017-05-05T09:42:26.229Z,20544
2017-05-05T09:43:48.001Z,19936
2017-05-05T09:45:09.809Z,19616
2017-05-05T09:46:31.576Z,17248
2017-05-05T09:47:53.428Z,15744
2017-05-05T09:49:15.263Z,14112
2017-05-05T09:50:37.212Z,12128
2017-05-05T09:51:59.169Z,10852
2017-05-05T09:53:21.059Z,10352
2017-05-05T09:54:42.883Z,10132
2017-05-05T09:56:04.843Z,9924
2017-05-05T09:57:26.673Z,10384
2017-05-05T09:58:48.529Z,11512
2017-05-05T10:00:10.353Z,12932
2017-05-05T10:01:32.843Z,13300
2017-05-05T10:02:54.658Z,13804
2017-05-05T10:04:17.377Z,14880
2017-05-05T10:05:39.214Z,16288
2017-05-05T10:07:01.269Z,17984
2017-05-05T10:08:23.004Z,20256
2017-05-05T10:09:45.923Z,22912
2017-05-05T10:11:07.707Z,24768
2017-05-05T10:12:29.662Z,28480
2017-05-05T10:13:51.789Z,44384
2017-05-05T10:15:13.841Z,85408
2017-05-05T10:16:35.832Z,91136
2017-05-05T10:17:57.887Z,64448
2017-05-05T10:19:19.811Z,41088
2017-05-05T10:20:41.636Z,41120
2017-05-05T10:22:03.419Z,37184
2017-05-05T10:23:25.253Z,31648
2017-05-05T10:24:47.060Z,30880
2017-05-05T10:26:09.011Z,45504
2017-05-05T10:27:31.868Z,71104
2017-05-05T10:28:53.622Z,76160
2017-05-05T10:30:15.388Z,88864
2017-05-05T10:31:37.222Z,92192
2017-05-05T10:32:59.013Z,82496
2017-05-05T10:34:20.860Z,96192
2017-05-05T10:35:42.751Z,74272
2017-05-05T10:37:04.590Z,74240
2017-05-05T10:38:26.461Z,90080
2017-05-05T10:39:48.279Z,53056
2017-05-05T10:41:10.219Z,98880
2017-05-05T10:42:31.995Z,51872
2017-05-05T10:43:53.787Z,99264
2017-05-05T10:45:15.508Z,96864
2017-05-05T10:46:37.291Z,92192
2017-05-05T10:47:59.517Z,45216
2017-05-05T10:49:21.559Z,45376
2017-05-05T10:50:43.680Z,57408
2017-05-05T10:52:05.468Z,76832
2017-05-05T10:53:27.199Z,34656
2017-05-05T10:54:48.904Z,36768
2017-05-05T10:56:10.790Z,17728
2017-05-05T10:57:32.567Z,15552
2017-05-05T10:58:54.420Z,14528
2017-05-05T11:00:16.246Z,14208
2017-05-05T11:01:38.210Z,14656
2017-05-05T11:03:00.045Z,15584
2017-05-05T11:04:21.749Z,16800
2017-05-05T11:05:43.632Z,18880
2017-05-05T11:07:05.466Z,21088
2017-05-05T11:08:27.856Z,22912
2017-05-05T11:09:49.682Z,23104
2017-05-05T11:11:11.454Z,22208
2017-05-05T11:12:42.991Z,22016
2017-05-05T11:14:04.756Z,23104
2017-05-05T11:15:26.638Z,22912
2017-05-05T11:16:49.453Z,22688
2017-05-05T11:18:16.367Z,22496
2017-05-05T11:19:38.514Z,21696
2017-05-05T11:21:00.330Z,21536
2017-05-05T11:22:22.123Z,23680
2017-05-05T11:23:44.277Z,29536
2017-05-05T11:25:06.242Z,36512
2017-05-05T11:26:28.085Z,38336
2017-05-05T11:27:49.930Z,31776
2017-05-05T11:29:11.764Z,31616
2017-05-05T11:30:33.687Z,30304
2017-05-05T11:31:55.533Z,32032
2017-05-05T11:33:17.350Z,35520
2017-05-05T11:34:39.193Z,48384
2017-05-05T11:36:00.958Z,54624
2017-05-05T11:37:22.769Z,43648
2017-05-05T11:38:44.507Z,59936
2017-05-05T11:40:07.550Z,71840
2017-05-05T11:41:29.377Z,73024
2017-05-05T11:42:51.295Z,37632
2017-05-05T11:44:13.099Z,40064
2017-05-05T11:45:34.969Z,78432
2017-05-05T11:46:56.855Z,90720
2017-05-05T11:48:18.740Z,42528
2017-05-05T11:49:40.560Z,27552
2017-05-05T11:51:02.342Z,26240
2017-05-05T11:52:24.129Z,23456
2017-05-05T11:53:46.098Z,30720
2017-05-05T11:55:07.927Z,34432
2017-05-05T11:56:29.801Z,35552
2017-05-05T11:57:51.755Z,63616
2017-05-05T11:59:13.592Z,18848
2017-05-05T12:00:35.349Z,22592
2017-05-05T12:01:57.310Z,38464
2017-05-05T12:03:19.186Z,109760
2017-05-05T12:04:41.257Z,76832
2017-05-05T12:06:03.190Z,37568
2017-05-05T12:07:24.979Z,25248
2017-05-05T12:08:46.734Z,33056
2017-05-05T12:10:08.514Z,109888
2017-05-05T12:11:30.367Z,110848
2017-05-05T12:12:52.194Z,110176
2017-05-05T12:14:13.977Z,124736
2017-05-05T12:15:35.822Z,113088
2017-05-05T12:16:57.584Z,89504
2017-05-05T12:18:19.518Z,89856
2017-05-05T12:19:41.311Z,128224
2017-05-05T12:21:03.069Z,154336
2017-05-05T12:22:24.860Z,48608
2017-05-05T12:23:46.819Z,47936
2017-05-05T12:25:08.791Z,31104
2017-05-05T12:26:30.589Z,41280
2017-05-05T12:27:52.748Z,34304
2017-05-05T12:29:14.616Z,38304
2017-05-05T12:30:36.514Z,30528
2017-05-05T12:31:58.320Z,25824
2017-05-05T12:33:20.150Z,25568
2017-05-05T12:34:42.062Z,26976
2017-05-05T12:36:03.822Z,32768
2017-05-05T12:37:25.706Z,32256
2017-05-05T12:38:47.642Z,31744
2017-05-05T12:40:09.525Z,32896
2017-05-05T12:41:31.263Z,94912
2017-05-05T12:42:53.206Z,88480
2017-05-05T12:44:14.975Z,47168
2017-05-05T12:45:36.795Z,50112
2017-05-05T12:46:58.625Z,58624
2017-05-05T12:48:20.458Z,110944
2017-05-05T12:49:42.325Z,71232
2017-05-05T12:51:04.156Z,40096
2017-05-05T12:52:26.062Z,35712
2017-05-05T12:53:47.863Z,37536
2017-05-05T12:55:09.665Z,40576
2017-05-05T12:56:31.461Z,39136
2017-05-05T12:57:58.891Z,57056
2017-05-05T12:59:21.324Z,33280
2017-05-05T13:00:43.143Z,44576
2017-05-05T13:02:04.972Z,90816
2017-05-05T13:03:26.798Z,111872
2017-05-05T13:04:48.592Z,114656
2017-05-05T13:06:10.418Z,115616
2017-05-05T13:07:32.208Z,59072
2017-05-05T13:08:54.002Z,82848
2017-05-05T13:10:15.799Z,78944
2017-05-05T13:11:37.652Z,69664
2017-05-05T13:12:59.592Z,85504
2017-05-05T13:14:21.379Z,84384
2017-05-05T13:15:43.150Z,40192
2017-05-05T13:17:04.986Z,28736
2017-05-05T13:18:26.860Z,27200
2017-05-05T13:19:48.788Z,27584
2017-05-05T13:21:10.615Z,29664
2017-05-05T13:22:32.406Z,78016
2017-05-05T13:23:54.317Z,68608
2017-05-05T13:25:16.059Z,107520
2017-05-05T13:26:37.920Z,21728
2017-05-05T13:27:59.651Z,85376
2017-05-05T13:29:21.432Z,75136
2017-05-05T13:30:43.297Z,54880
2017-05-05T13:32:05.161Z,51936
2017-05-05T13:33:26.949Z,29344
2017-05-05T13:34:48.818Z,22688
2017-05-05T13:36:10.723Z,21824
2017-05-05T13:37:32.553Z,27104
2017-05-05T13:38:54.409Z,30528
2017-05-05T13:40:16.309Z,70848
2017-05-05T13:41:38.087Z,90144
2017-05-05T13:42:59.861Z,86976
2017-05-05T13:44:21.639Z,73824
2017-05-05T13:45:43.473Z,39296
2017-05-05T13:47:05.327Z,60576
2017-05-05T13:48:27.188Z,25312
2017-05-05T13:49:48.970Z,22432
2017-05-05T13:51:10.780Z,88032
2017-05-05T13:52:32.511Z,41312
2017-05-05T13:53:54.336Z,80960
2017-05-05T13:55:16.382Z,24224
2017-05-05T13:56:38.350Z,89344
2017-05-05T13:58:00.179Z,76832
2017-05-05T13:59:22.002Z,25920
2017-05-05T14:00:43.863Z,56800
2017-05-05T14:02:05.711Z,45376
2017-05-05T14:03:27.513Z,34496
2017-05-05T14:04:49.423Z,46368
2017-05-05T14:06:11.248Z,45600
2017-05-05T14:07:33.065Z,40992
2017-05-05T14:08:57.840Z,34880
2017-05-05T14:10:19.903Z,33280
2017-05-05T14:11:41.765Z,32768
2017-05-05T14:13:03.584Z,33024
2017-05-05T14:14:25.399Z,32640
2017-05-05T14:15:47.169Z,32832
2017-05-05T14:17:09.036Z,29760
2017-05-05T14:18:31.132Z,32032
2017-05-05T14:19:52.993Z,31360
2017-05-05T14:21:14.842Z,31040
2017-05-05T14:22:36.763Z,30336
2017-05-05T14:23:58.671Z,33024
2017-05-05T14:25:20.454Z,23552
2017-05-05T14:26:42.182Z,32064
2017-05-05T14:28:03.943Z,23616
2017-05-05T14:29:25.854Z,16832
2017-05-05T14:30:48.965Z,16384
2017-05-05T14:32:10.834Z,16320
2017-05-05T14:33:32.643Z,22112
2017-05-05T14:34:54.439Z,22624
2017-05-05T14:36:16.428Z,24128
2017-05-05T14:37:38.292Z,17056
2017-05-05T14:39:03.580Z,15148
2017-05-05T14:40:25.342Z,22048
2017-05-05T14:41:47.147Z,30112
2017-05-05T14:43:09.105Z,28448
2017-05-05T14:44:32.740Z,28224
2017-05-05T14:46:14.671Z,27296
2017-05-05T14:47:48.850Z,26752
2017-05-05T14:49:10.754Z,26176
2017-05-05T14:50:32.675Z,25760
2017-05-05T14:51:54.519Z,25600
2017-05-05T14:53:16.374Z,13956
2017-05-05T14:54:38.136Z,26080
2017-05-05T14:55:59.995Z,23712
2017-05-05T14:57:21.824Z,25504
2017-05-05T14:58:43.715Z,25600
2017-05-05T15:00:05.614Z,25280
2017-05-05T15:01:27.494Z,24512
2017-05-05T15:02:49.353Z,24576
2017-05-05T15:04:12.248Z,24480
2017-05-05T15:05:34.759Z,24320
2017-05-05T15:06:56.604Z,23808
2017-05-05T15:08:18.828Z,23840
2017-05-05T15:09:40.672Z,24128
2017-05-05T15:11:02.737Z,24448
2017-05-05T15:12:24.772Z,24320
2017-05-05T15:13:46.589Z,24320
2017-05-05T15:15:09.374Z,24288
2017-05-05T15:16:31.163Z,24128
2017-05-05T15:17:53.029Z,23744
2017-05-05T15:19:14.858Z,23456
2017-05-05T15:20:36.693Z,23168
2017-05-05T15:21:58.461Z,22912
2017-05-05T15:23:20.364Z,22688
2017-05-05T15:24:42.157Z,22592
2017-05-05T15:26:03.991Z,22432
2017-05-05T15:27:25.734Z,22176
2017-05-05T15:28:47.741Z,22240
2017-05-05T15:30:09.618Z,22240
2017-05-05T15:31:31.426Z,22336
2017-05-05T15:32:53.430Z,22240
2017-05-05T15:34:15.718Z,22112
2017-05-05T15:35:37.486Z,21920
2017-05-05T15:36:59.261Z,21728
2017-05-05T15:38:21.057Z,21440
2017-05-05T15:39:43.002Z,21280
2017-05-05T15:41:04.868Z,21120
2017-05-05T15:42:26.724Z,21152
2017-05-05T15:43:49.888Z,21056
2017-05-05T15:45:12.589Z,21056
2017-05-05T15:46:34.379Z,20960
2017-05-05T15:47:56.474Z,21088
2017-05-05T15:49:18.420Z,21056
2017-05-05T15:50:40.183Z,20928
2017-05-05T15:52:02.060Z,20480
2017-05-05T15:53:23.901Z,20064
2017-05-05T15:54:45.655Z,19744
2017-05-05T15:56:07.540Z,19456
2017-05-05T15:57:29.394Z,19232
2017-05-05T15:58:51.240Z,19040
2017-05-05T16:00:13.044Z,18816
2017-05-05T16:01:34.899Z,18848
2017-05-05T16:02:56.757Z,18944
2017-05-05T16:04:19.136Z,18944
2017-05-05T16:05:42.149Z,18752
2017-05-05T16:07:04.002Z,18944
2017-05-05T16:08:25.900Z,19168
2017-05-05T16:09:47.735Z,19072
2017-05-05T16:11:09.640Z,18912
2017-05-05T16:12:31.494Z,18720
2017-05-05T16:13:53.291Z,18400
2017-05-05T16:15:15.097Z,18112
2017-05-05T16:16:36.938Z,17984
2017-05-05T16:17:58.741Z,16576
2017-05-05T16:19:21.415Z,13096
2017-05-05T16:20:43.159Z,13084
2017-05-05T16:22:04.960Z,13200
2017-05-05T16:23:27.130Z,13208
2017-05-05T16:24:49.071Z,13016
2017-05-05T16:26:10.969Z,12872
2017-05-05T16:27:32.845Z,12704
2017-05-05T16:28:54.788Z,12544
2017-05-05T16:30:16.635Z,12084
2017-05-05T16:31:39.099Z,11936
2017-05-05T16:33:00.924Z,11800
2017-05-05T16:34:22.917Z,11632
2017-05-05T16:35:45.851Z,11320
2017-05-05T16:37:07.696Z,11120
2017-05-05T16:38:29.548Z,10976
2017-05-05T16:39:51.466Z,10884
2017-05-05T16:41:13.412Z,10716
2017-05-05T16:42:35.132Z,10648
2017-05-05T16:43:56.949Z,10476
2017-05-05T16:45:18.740Z,10348
2017-05-05T16:46:40.507Z,10116
2017-05-05T16:48:02.220Z,9572
2017-05-05T16:49:24.037Z,9008
2017-05-05T16:50:45.884Z,8608
2017-05-05T16:52:07.678Z,8004
2017-05-05T16:53:29.492Z,7296
2017-05-05T16:54:51.312Z,6776
2017-05-05T16:56:13.174Z,6496
2017-05-05T16:57:36.140Z,6288
2017-05-05T16:58:57.999Z,6100
2017-05-05T17:00:19.881Z,5940
2017-05-05T17:01:41.763Z,5836
2017-05-05T17:03:03.596Z,5764
2017-05-05T17:04:25.521Z,5652
2017-05-05T17:05:47.539Z,5484
2017-05-05T17:07:09.393Z,5312
2017-05-05T17:08:32.515Z,5220
2017-05-05T17:09:54.376Z,5164
2017-05-05T17:11:16.373Z,5100
2017-05-05T17:12:39.303Z,5036
2017-05-05T17:14:01.220Z,4960
2017-05-05T17:15:24.096Z,4868
2017-05-05T17:16:45.841Z,4756
2017-05-05T17:18:07.668Z,4656
2017-05-05T17:19:29.508Z,4600
2017-05-05T17:20:51.435Z,4564
2017-05-05T17:22:13.188Z,4524
2017-05-05T17:23:35.209Z,4476
2017-05-05T17:24:57.032Z,4404
2017-05-05T17:26:18.981Z,4336
2017-05-05T17:27:40.803Z,4264
2017-05-05T17:29:02.721Z,4200
2017-05-05T17:30:24.562Z,4116
2017-05-05T17:31:46.328Z,4036
2017-05-05T17:33:08.236Z,3944
2017-05-05T17:34:30.072Z,3820
2017-05-05T17:35:51.884Z,3712
2017-05-05T17:37:13.777Z,3652
2017-05-05T17:38:35.675Z,3552
2017-05-05T17:39:57.916Z,3496
2017-05-05T17:41:19.803Z,3424
2017-05-05T17:42:41.707Z,3368
2017-05-05T17:44:03.541Z,3312
2017-05-05T17:45:25.363Z,3248
2017-05-05T17:46:47.168Z,3168
2017-05-05T17:48:09.075Z,3084
2017-05-05T17:49:31.975Z,2980
2017-05-05T17:50:53.917Z,2844
2017-05-05T17:52:15.785Z,2712
2017-05-05T17:53:37.655Z,2588
2017-05-05T17:54:59.511Z,2516
2017-05-05T17:56:21.422Z,2404
2017-05-05T17:57:43.241Z,2268
2017-05-05T17:59:06.111Z,2232
2017-05-05T18:00:28.020Z,2116
2017-05-05T18:01:50.009Z,1972
2017-05-05T18:03:11.906Z,1840
2017-05-05T18:04:33.746Z,1748
2017-05-05T18:06:05.397Z,1672
2017-05-05T18:07:27.300Z,1624
2017-05-05T18:08:49.237Z,1532
2017-05-05T18:10:11.104Z,1428
2017-05-05T18:11:42.774Z,1332
2017-05-05T18:13:04.630Z,1212
2017-05-05T18:14:26.530Z,1092
2017-05-05T18:15:48.416Z,980
2017-05-05T18:17:10.359Z,896
2017-05-05T18:18:32.439Z,816
2017-05-05T18:19:54.226Z,740
2017-05-05T18:21:16.097Z,676
2017-05-05T18:22:37.821Z,612
2017-05-05T18:23:59.695Z,560
2017-05-05T18:25:21.552Z,500
2017-05-05T18:26:43.514Z,460
2017-05-05T18:28:05.353Z,412
2017-05-05T18:29:27.318Z,368
2017-05-05T18:30:49.143Z,332
2017-05-05T18:32:10.924Z,300